CheckWX is a tool to help pilots better visualize weather data.  It is not intended as a substitute for an official pre-flight weather briefing.

01:18:26 UTC

1K1 METAR
Lloyd Stearman Field Airport
Benton, Kansas, USA
Current

23 mins ago

K1K1 200055Z AUTO 17011G18KT 10SM CLR 33/20 A2981 RMK AO2 T03300200
Observed
Jul-20 @ 00:55 UTC
Wind
  • 170° at 11 KTS
  • Gusting to 18 KTS
Visibility
10 SM
Flight Rules
VFR
Cloud Levels
  • Clear skies
Temperature
33°C / 91°F
Dewpoint
20°C / 68°F
Heat Index
35°C / 95°F
Humidity
46%
Altimeter
29.81" Hg
Pressure
1009.52 hPa
Previous

43 mins ago

K1K1 200035Z AUTO 18010G20KT 10SM CLR 34/20 A2980 RMK AO2 T03400201
Observed
Jul-20 @ 00:35 UTC
Wind
  • 180° at 10 KTS
  • Gusting to 20 KTS
Visibility
10 SM
Flight Rules
VFR
Cloud Levels
  • Clear skies
Temperature
34°C / 93°F
Dewpoint
20°C / 68°F
Heat Index
36°C / 97°F
Humidity
44%
Altimeter
29.8" Hg
Pressure
1009.12 hPa
Previous

1 hour ago

K1K1 200015Z AUTO 19015G24KT 10SM CLR 35/19 A2980 RMK AO2 T03470191
Observed
Jul-20 @ 00:15 UTC
Wind
  • 190° at 15 KTS
  • Gusting to 24 KTS
Visibility
10 SM
Flight Rules
VFR
Cloud Levels
  • Clear skies
Temperature
35°C / 95°F
Dewpoint
19°C / 66°F
Humidity
39%
Altimeter
29.8" Hg
Pressure
1009.12 hPa